sensor_id;sensor_type;location;lat;lon;timestamp;pressure;altitude;pressure_sealevel;temperature;humidity
38939;BME280;24211;49.980;19.776;2023-03-20T00:02:21;99332.81;;;8.21;98.68
38939;BME280;24211;49.980;19.776;2023-03-20T00:04:49;99333.84;;;8.20;98.65
38939;BME280;24211;49.980;19.776;2023-03-20T00:07:16;99333.84;;;8.20;98.25
38939;BME280;24211;49.980;19.776;2023-03-20T00:09:43;99333.84;;;8.20;97.53
38939;BME280;24211;49.980;19.776;2023-03-20T00:12:23;99337.94;;;8.16;96.44
38939;BME280;24211;49.980;19.776;2023-03-20T00:14:52;99338.38;;;8.13;98.38
38939;BME280;24211;49.980;19.776;2023-03-20T00:17:20;99344.13;;;8.10;97.63
38939;BME280;24211;49.980;19.776;2023-03-20T00:19:47;99340.84;;;8.08;97.38
38939;BME280;24211;49.980;19.776;2023-03-20T00:22:15;99342.91;;;8.06;98.35
38939;BME280;24211;49.980;19.776;2023-03-20T00:24:42;99334.28;;;8.04;97.84
38939;BME280;24211;49.980;19.776;2023-03-20T00:27:14;99338.41;;;8.00;99.46
38939;BME280;24211;49.980;19.776;2023-03-20T00:29:43;99334.72;;;8.01;98.65
38939;BME280;24211;49.980;19.776;2023-03-20T00:32:12;99332.06;;;7.94;100.00
38939;BME280;24211;49.980;19.776;2023-03-20T00:34:40;99331.06;;;7.88;100.00
38939;BME280;24211;49.980;19.776;2023-03-20T00:37:08;99334.72;;;7.87;100.00
38939;BME280;24211;49.980;19.776;2023-03-20T00:39:35;99320.00;;;7.85;100.00
38939;BME280;24211;49.980;19.776;2023-03-20T00:42:05;99316.94;;;7.88;99.84
38939;BME280;24211;49.980;19.776;2023-03-20T00:44:36;99320.22;;;7.83;100.00
38939;BME280;24211;49.980;19.776;2023-03-20T00:47:20;99320.63;;;7.80;100.00
38939;BME280;24211;49.980;19.776;2023-03-20T00:49:52;99330.03;;;7.76;100.00
38939;BME280;24211;49.980;19.776;2023-03-20T00:52:21;99317.75;;;7.75;100.00
38939;BME280;24211;49.980;19.776;2023-03-20T00:54:51;99325.13;;;7.73;100.00
38939;BME280;24211;49.980;19.776;2023-03-20T00:57:23;99326.16;;;7.72;100.00
38939;BME280;24211;49.980;19.776;2023-03-20T01:00:05;99318.38;;;7.64;100.00
38939;BME280;24211;49.980;19.776;2023-03-20T01:02:33;99322.25;;;7.62;100.00
38939;BME280;24211;49.980;19.776;2023-03-20T01:05:02;99326.56;;;7.56;100.00
38939;BME280;24211;49.980;19.776;2023-03-20T01:07:31;99321.66;;;7.53;100.00
38939;BME280;24211;49.980;19.776;2023-03-20T01:09:58;99325.34;;;7.52;100.00
38939;BME280;24211;49.980;19.776;2023-03-20T01:12:26;99325.34;;;7.52;100.00
38939;BME280;24211;49.980;19.776;2023-03-20T01:14:56;99320.63;;;7.48;100.00
38939;BME280;24211;49.980;19.776;2023-03-20T01:17:26;99315.53;;;7.46;100.00
38939;BME280;24211;49.980;19.776;2023-03-20T01:19:54;99319.19;;;7.45;100.00
38939;BME280;24211;49.980;19.776;2023-03-20T01:22:22;99324.91;;;7.42;100.00
38939;BME280;24211;49.980;19.776;2023-03-20T01:24:49;99319.00;;;7.40;100.00
38939;BME280;24211;49.980;19.776;2023-03-20T01:27:18;99318.59;;;7.37;100.00
38939;BME280;24211;49.980;19.776;2023-03-20T01:29:46;99324.13;;;7.42;100.00
38939;BME280;24211;49.980;19.776;2023-03-20T01:32:18;99319.59;;;7.36;100.00
38939;BME280;24211;49.980;19.776;2023-03-20T01:34:50;99317.56;;;7.31;100.00
38939;BME280;24211;49.980;19.776;2023-03-20T01:37:25;99325.31;;;7.26;100.00
38939;BME280;24211;49.980;19.776;2023-03-20T01:39:57;99322.47;;;7.21;100.00
38939;BME280;24211;49.980;19.776;2023-03-20T01:42:25;99318.78;;;7.22;100.00
38939;BME280;24211;49.980;19.776;2023-03-20T01:44:52;99320.03;;;7.19;100.00
38939;BME280;24211;49.980;19.776;2023-03-20T01:47:23;99317.53;;;7.18;100.00
38939;BME280;24211;49.980;19.776;2023-03-20T01:53:09;99315.72;;;7.12;100.00
38939;BME280;24211;49.980;19.776;2023-03-20T01:55:45;99317.53;;;7.05;100.00
38939;BME280;24211;49.980;19.776;2023-03-20T01:58:28;99313.84;;;7.06;100.00
38939;BME280;24211;49.980;19.776;2023-03-20T02:00:58;99317.94;;;7.02;100.00
38939;BME280;24211;49.980;19.776;2023-03-20T02:03:26;99314.69;;;7.00;100.00
38939;BME280;24211;49.980;19.776;2023-03-20T02:06:12;99317.50;;;6.98;100.00
38939;BME280;24211;49.980;19.776;2023-03-20T02:09:10;99317.91;;;6.89;100.00
38939;BME280;24211;49.980;19.776;2023-03-20T02:11:44;99320.78;;;6.87;100.00
38939;BME280;24211;49.980;19.776;2023-03-20T02:14:13;99322.16;;;6.83;100.00
38939;BME280;24211;49.980;19.776;2023-03-20T02:17:05;99322.38;;;6.82;100.00
38939;BME280;24211;49.980;19.776;2023-03-20T02:26:25;99324.81;;;6.77;100.00
38939;BME280;24211;49.980;19.776;2023-03-20T02:32:17;99323.16;;;6.76;100.00
38939;BME280;24211;49.980;19.776;2023-03-20T02:38:10;99320.72;;;6.74;100.00
38939;BME280;24211;49.980;19.776;2023-03-20T02:41:20;99324.38;;;6.67;100.00
38939;BME280;24211;49.980;19.776;2023-03-20T02:44:20;99325.81;;;6.63;100.00
38939;BME280;24211;49.980;19.776;2023-03-20T02:49:57;99320.28;;;6.57;100.00
38939;BME280;24211;49.980;19.776;2023-03-20T02:53:02;99317.63;;;6.57;100.00
38939;BME280;24211;49.980;19.776;2023-03-20T02:55:39;99306.38;;;6.55;100.00
38939;BME280;24211;49.980;19.776;2023-03-20T03:01:09;99307.78;;;6.51;100.00
38939;BME280;24211;49.980;19.776;2023-03-20T03:06:25;99307.56;;;6.46;100.00
38939;BME280;24211;49.980;19.776;2023-03-20T03:09:02;99307.97;;;6.43;100.00
38939;BME280;24211;49.980;19.776;2023-03-20T03:11:42;99306.72;;;6.39;100.00
38939;BME280;24211;49.980;19.776;2023-03-20T03:14:20;99305.88;;;6.39;100.00
38939;BME280;24211;49.980;19.776;2023-03-20T03:16:52;99303.44;;;6.37;100.00
38939;BME280;24211;49.980;19.776;2023-03-20T03:19:24;99299.78;;;6.38;100.00
38939;BME280;24211;49.980;19.776;2023-03-20T03:21:54;99300.56;;;6.39;100.00
38939;BME280;24211;49.980;19.776;2023-03-20T03:24:35;99301.78;;;6.36;100.00
38939;BME280;24211;49.980;19.776;2023-03-20T03:27:27;99300.56;;;6.32;100.00
38939;BME280;24211;49.980;19.776;2023-03-20T03:30:33;99296.91;;;6.33;100.00
38939;BME280;24211;49.980;19.776;2023-03-20T03:33:34;99299.31;;;6.28;100.00
38939;BME280;24211;49.980;19.776;2023-03-20T03:39:19;99303.38;;;6.24;100.00
38939;BME280;24211;49.980;19.776;2023-03-20T03:45:11;99300.50;;;6.19;100.00
38939;BME280;24211;49.980;19.776;2023-03-20T03:47:53;99307.41;;;6.14;100.00
38939;BME280;24211;49.980;19.776;2023-03-20T03:50:43;99309.88;;;6.15;100.00
38939;BME280;24211;49.980;19.776;2023-03-20T03:53:30;99304.31;;;6.10;100.00
38939;BME280;24211;49.980;19.776;2023-03-20T03:56:04;99300.06;;;6.09;100.00
38939;BME280;24211;49.980;19.776;2023-03-20T03:58:42;99297.78;;;6.06;100.00
38939;BME280;24211;49.980;19.776;2023-03-20T04:01:12;99290.41;;;6.02;100.00
38939;BME280;24211;49.980;19.776;2023-03-20T04:03:55;99293.88;;;6.02;100.00
38939;BME280;24211;49.980;19.776;2023-03-20T04:06:26;99297.56;;;6.01;100.00
38939;BME280;24211;49.980;19.776;2023-03-20T04:08:53;99303.63;;;5.95;100.00
38939;BME280;24211;49.980;19.776;2023-03-20T04:11:24;99309.97;;;5.94;100.00
38939;BME280;24211;49.980;19.776;2023-03-20T04:13:52;99315.66;;;5.91;100.00
38939;BME280;24211;49.980;19.776;2023-03-20T04:16:22;99315.03;;;5.89;100.00
38939;BME280;24211;49.980;19.776;2023-03-20T04:18:50;99309.72;;;5.89;100.00
38939;BME280;24211;49.980;19.776;2023-03-20T04:21:18;99306.44;;;5.87;100.00
38939;BME280;24211;49.980;19.776;2023-03-20T04:23:46;99306.44;;;5.87;100.00
38939;BME280;24211;49.980;19.776;2023-03-20T04:26:13;99310.09;;;5.86;100.00
38939;BME280;24211;49.980;19.776;2023-03-20T04:28:41;99313.38;;;5.88;100.00
38939;BME280;24211;49.980;19.776;2023-03-20T04:31:27;99324.38;;;5.85;100.00
38939;BME280;24211;49.980;19.776;2023-03-20T04:34:16;99312.09;;;5.84;100.00
38939;BME280;24211;49.980;19.776;2023-03-20T04:36:57;99311.28;;;5.83;100.00
38939;BME280;24211;49.980;19.776;2023-03-20T04:39:41;99314.13;;;5.82;100.00
38939;BME280;24211;49.980;19.776;2023-03-20T04:42:10;99314.53;;;5.79;100.00
38939;BME280;24211;49.980;19.776;2023-03-20T04:44:37;99316.13;;;5.80;100.00
38939;BME280;24211;49.980;19.776;2023-03-20T04:47:04;99312.88;;;5.78;100.00
38939;BME280;24211;49.980;19.776;2023-03-20T04:49:35;99314.91;;;5.76;100.00
38939;BME280;24211;49.980;19.776;2023-03-20T04:52:02;99313.28;;;5.75;100.00
38939;BME280;24211;49.980;19.776;2023-03-20T04:54:40;99319.78;;;5.72;100.00
38939;BME280;24211;49.980;19.776;2023-03-20T04:57:07;99311.63;;;5.74;100.00
38939;BME280;24211;49.980;19.776;2023-03-20T04:59:35;99313.66;;;5.72;100.00
38939;BME280;24211;49.980;19.776;2023-03-20T05:02:02;99322.25;;;5.74;100.00
38939;BME280;24211;49.980;19.776;2023-03-20T05:04:30;99322.25;;;5.74;100.00
38939;BME280;24211;49.980;19.776;2023-03-20T05:06:57;99318.97;;;5.72;100.00
38939;BME280;24211;49.980;19.776;2023-03-20T05:09:31;99322.63;;;5.71;100.00
38939;BME280;24211;49.980;19.776;2023-03-20T05:12:01;99333.22;;;5.71;100.00
38939;BME280;24211;49.980;19.776;2023-03-20T05:14:47;99329.94;;;5.69;100.00
38939;BME280;24211;49.980;19.776;2023-03-20T05:17:35;99328.28;;;5.68;100.00
38939;BME280;24211;49.980;19.776;2023-03-20T05:20:29;99331.97;;;5.67;100.00
38939;BME280;24211;49.980;19.776;2023-03-20T05:23:06;99333.19;;;5.64;100.00
38939;BME280;24211;49.980;19.776;2023-03-20T05:25:54;99332.97;;;5.66;100.00
38939;BME280;24211;49.980;19.776;2023-03-20T05:28:40;99335.25;;;5.69;100.00
38939;BME280;24211;49.980;19.776;2023-03-20T05:31:22;99336.91;;;5.70;100.00
38939;BME280;24211;49.980;19.776;2023-03-20T05:33:58;99344.84;;;5.70;100.00
38939;BME280;24211;49.980;19.776;2023-03-20T05:36:41;99342.22;;;5.70;100.00
38939;BME280;24211;49.980;19.776;2023-03-20T05:39:31;99335.25;;;5.69;100.00
38939;BME280;24211;49.980;19.776;2023-03-20T05:42:18;99337.69;;;5.70;100.00
38939;BME280;24211;49.980;19.776;2023-03-20T05:45:16;99341.00;;;5.72;100.00
38939;BME280;24211;49.980;19.776;2023-03-20T05:48:02;99341.78;;;5.73;100.00
38939;BME280;24211;49.980;19.776;2023-03-20T05:50:35;99348.75;;;5.74;100.00
38939;BME280;24211;49.980;19.776;2023-03-20T05:53:37;99348.38;;;5.77;100.00
38939;BME280;24211;49.980;19.776;2023-03-20T05:56:24;99346.72;;;5.76;100.00
38939;BME280;24211;49.980;19.776;2023-03-20T05:59:11;99344.69;;;5.78;100.00
38939;BME280;24211;49.980;19.776;2023-03-20T06:01:59;99351.66;;;5.79;100.00
38939;BME280;24211;49.980;19.776;2023-03-20T06:04:32;99356.94;;;5.79;100.00
38939;BME280;24211;49.980;19.776;2023-03-20T06:07:15;99353.91;;;5.82;100.00
38939;BME280;24211;49.980;19.776;2023-03-20T06:09:47;99343.94;;;5.84;100.00
38939;BME280;24211;49.980;19.776;2023-03-20T06:12:15;99345.59;;;5.85;100.00
38939;BME280;24211;49.980;19.776;2023-03-20T06:14:43;99346.25;;;5.87;100.00
38939;BME280;24211;49.980;19.776;2023-03-20T06:17:11;99353.78;;;5.90;100.00
38939;BME280;24211;49.980;19.776;2023-03-20T06:19:38;99358.31;;;5.96;100.00
38939;BME280;24211;49.980;19.776;2023-03-20T06:22:05;99360.84;;;6.04;100.00
38939;BME280;24211;49.980;19.776;2023-03-20T06:24:32;99364.97;;;6.13;100.00
38939;BME280;24211;49.980;19.776;2023-03-20T06:27:01;99367.06;;;6.24;100.00
38939;BME280;24211;49.980;19.776;2023-03-20T06:29:29;99359.38;;;6.36;100.00
38939;BME280;24211;49.980;19.776;2023-03-20T06:32:07;99365.78;;;6.48;100.00
38939;BME280;24211;49.980;19.776;2023-03-20T06:34:35;99375.00;;;6.58;100.00
38939;BME280;24211;49.980;19.776;2023-03-20T06:37:03;99364.44;;;6.72;100.00
38939;BME280;24211;49.980;19.776;2023-03-20T06:39:30;99368.16;;;6.84;100.00
38939;BME280;24211;49.980;19.776;2023-03-20T06:41:58;99373.53;;;6.97;100.00
38939;BME280;24211;49.980;19.776;2023-03-20T06:44:27;99368.66;;;7.07;100.00
38939;BME280;24211;49.980;19.776;2023-03-20T06:47:10;99373.13;;;7.13;100.00
38939;BME280;24211;49.980;19.776;2023-03-20T06:49:38;99372.75;;;7.16;100.00
38939;BME280;24211;49.980;19.776;2023-03-20T06:52:07;99381.38;;;7.24;100.00
38939;BME280;24211;49.980;19.776;2023-03-20T06:54:37;99379.53;;;7.32;100.00
38939;BME280;24211;49.980;19.776;2023-03-20T06:57:04;99384.25;;;7.36;100.00
38939;BME280;24211;49.980;19.776;2023-03-20T06:59:31;99387.50;;;7.38;100.00
38939;BME280;24211;49.980;19.776;2023-03-20T07:01:58;99385.06;;;7.43;100.00
38939;BME280;24211;49.980;19.776;2023-03-20T07:04:26;99385.91;;;7.63;100.00
38939;BME280;24211;49.980;19.776;2023-03-20T07:06:57;99387.75;;;7.76;100.00
38939;BME280;24211;49.980;19.776;2023-03-20T07:09:25;99386.31;;;7.86;100.00
38939;BME280;24211;49.980;19.776;2023-03-20T07:11:52;99391.19;;;7.96;100.00
38939;BME280;24211;49.980;19.776;2023-03-20T07:14:21;99390.16;;;8.04;100.00
38939;BME280;24211;49.980;19.776;2023-03-20T07:17:02;99392.44;;;8.13;100.00
38939;BME280;24211;49.980;19.776;2023-03-20T07:19:32;99380.31;;;8.24;100.00
38939;BME280;24211;49.980;19.776;2023-03-20T07:22:02;99390.38;;;8.35;100.00
38939;BME280;24211;49.980;19.776;2023-03-20T07:24:37;99380.13;;;8.45;100.00
38939;BME280;24211;49.980;19.776;2023-03-20T07:27:04;99383.31;;;8.60;100.00
38939;BME280;24211;49.980;19.776;2023-03-20T07:29:33;99380.84;;;8.72;100.00
38939;BME280;24211;49.980;19.776;2023-03-20T07:32:02;99383.47;;;8.78;100.00
38939;BME280;24211;49.980;19.776;2023-03-20T07:34:35;99371.34;;;8.89;100.00
38939;BME280;24211;49.980;19.776;2023-03-20T07:37:03;99377.81;;;8.99;100.00
38939;BME280;24211;49.980;19.776;2023-03-20T07:39:32;99374.88;;;9.14;100.00
38939;BME280;24211;49.980;19.776;2023-03-20T07:42:19;99375.56;;;9.41;100.00
38939;BME280;24211;49.980;19.776;2023-03-20T07:44:57;99379.00;;;9.48;100.00
38939;BME280;24211;49.980;19.776;2023-03-20T07:47:24;99378.44;;;9.64;100.00
38939;BME280;24211;49.980;19.776;2023-03-20T07:49:52;99383.53;;;9.72;100.00
38939;BME280;24211;49.980;19.776;2023-03-20T07:52:19;99384.28;;;9.79;100.00
38939;BME280;24211;49.980;19.776;2023-03-20T07:54:46;99382.53;;;9.91;100.00
38939;BME280;24211;49.980;19.776;2023-03-20T07:57:13;99380.03;;;9.96;100.00
38939;BME280;24211;49.980;19.776;2023-03-20T07:59:40;99380.44;;;10.00;100.00
38939;BME280;24211;49.980;19.776;2023-03-20T08:02:14;99388.38;;;10.06;100.00
38939;BME280;24211;49.980;19.776;2023-03-20T08:04:43;99386.88;;;10.10;100.00
38939;BME280;24211;49.980;19.776;2023-03-20T08:07:11;99387.81;;;10.22;100.00
38939;BME280;24211;49.980;19.776;2023-03-20T08:09:39;99390.06;;;10.25;100.00
38939;BME280;24211;49.980;19.776;2023-03-20T08:12:06;99385.47;;;10.32;100.00
38939;BME280;24211;49.980;19.776;2023-03-20T08:14:33;99389.69;;;10.40;100.00
38939;BME280;24211;49.980;19.776;2023-03-20T08:17:01;99387.19;;;10.63;100.00
38939;BME280;24211;49.980;19.776;2023-03-20T08:19:41;99378.81;;;10.78;100.00
38939;BME280;24211;49.980;19.776;2023-03-20T08:22:08;99376.56;;;10.75;100.00
38939;BME280;24211;49.980;19.776;2023-03-20T08:24:35;99372.25;;;10.92;100.00
38939;BME280;24211;49.980;19.776;2023-03-20T08:27:03;99377.56;;;11.10;100.00
38939;BME280;24211;49.980;19.776;2023-03-20T08:29:30;99381.09;;;11.22;100.00
38939;BME280;24211;49.980;19.776;2023-03-20T08:31:57;99377.31;;;11.41;100.00
38939;BME280;24211;49.980;19.776;2023-03-20T08:34:25;99373.63;;;11.54;100.00
38939;BME280;24211;49.980;19.776;2023-03-20T08:36:52;99371.72;;;11.72;100.00
38939;BME280;24211;49.980;19.776;2023-03-20T08:39:19;99374.31;;;11.91;100.00
38939;BME280;24211;49.980;19.776;2023-03-20T08:41:47;99380.03;;;12.06;100.00
38939;BME280;24211;49.980;19.776;2023-03-20T08:44:16;99370.34;;;12.28;100.00
38939;BME280;24211;49.980;19.776;2023-03-20T08:46:42;99378.94;;;12.53;100.00
38939;BME280;24211;49.980;19.776;2023-03-20T08:49:12;99363.38;;;12.78;98.02
38939;BME280;24211;49.980;19.776;2023-03-20T08:51:40;99370.03;;;12.87;97.92
38939;BME280;24211;49.980;19.776;2023-03-20T08:54:07;99364.34;;;13.00;94.21
38939;BME280;24211;49.980;19.776;2023-03-20T08:56:34;99358.84;;;13.19;91.61
38939;BME280;24211;49.980;19.776;2023-03-20T08:59:02;99355.69;;;13.22;91.20
38939;BME280;24211;49.980;19.776;2023-03-20T09:01:29;99355.84;;;13.32;88.30
38939;BME280;24211;49.980;19.776;2023-03-20T09:04:14;99363.31;;;13.30;86.15
38939;BME280;24211;49.980;19.776;2023-03-20T09:06:41;99363.66;;;13.33;86.14
38939;BME280;24211;49.980;19.776;2023-03-20T09:09:09;99358.97;;;13.57;85.25
38939;BME280;24211;49.980;19.776;2023-03-20T09:11:36;99347.91;;;13.87;83.49
38939;BME280;24211;49.980;19.776;2023-03-20T09:14:03;99357.59;;;14.04;81.95
38939;BME280;24211;49.980;19.776;2023-03-20T09:16:30;99358.81;;;13.97;80.91
38939;BME280;24211;49.980;19.776;2023-03-20T09:18:58;99368.28;;;13.99;79.71
38939;BME280;24211;49.980;19.776;2023-03-20T09:21:25;99363.88;;;14.10;80.23
38939;BME280;24211;49.980;19.776;2023-03-20T09:23:52;99371.03;;;14.04;80.71
38939;BME280;24211;49.980;19.776;2023-03-20T09:26:19;99359.81;;;14.07;80.89
38939;BME280;24211;49.980;19.776;2023-03-20T09:28:46;99358.66;;;14.03;80.73
38939;BME280;24211;49.980;19.776;2023-03-20T09:31:14;99373.19;;;13.86;82.65
38939;BME280;24211;49.980;19.776;2023-03-20T09:33:41;99375.69;;;13.92;82.69
38939;BME280;24211;49.980;19.776;2023-03-20T09:36:10;99371.34;;;14.24;82.43
38939;BME280;24211;49.980;19.776;2023-03-20T09:38:38;99369.22;;;14.26;83.93
38939;BME280;24211;49.980;19.776;2023-03-20T09:41:25;99369.78;;;14.28;85.88
38939;BME280;24211;49.980;19.776;2023-03-20T09:44:38;99370.03;;;14.44;86.24
38939;BME280;24211;49.980;19.776;2023-03-20T09:47:34;99369.69;;;14.57;86.69
38939;BME280;24211;49.980;19.776;2023-03-20T09:50:38;99366.72;;;14.80;87.32
38939;BME280;24211;49.980;19.776;2023-03-20T09:53:30;99368.34;;;15.02;87.04
38939;BME280;24211;49.980;19.776;2023-03-20T09:55:59;99364.91;;;15.07;89.44
38939;BME280;24211;49.980;19.776;2023-03-20T09:58:34;99360.56;;;15.01;93.60
38939;BME280;24211;49.980;19.776;2023-03-20T10:01:06;99367.53;;;15.02;100.00
38939;BME280;24211;49.980;19.776;2023-03-20T10:03:52;99359.53;;;15.07;100.00
38939;BME280;24211;49.980;19.776;2023-03-20T10:06:21;99365.50;;;15.14;98.73
38939;BME280;24211;49.980;19.776;2023-03-20T10:08:49;99359.91;;;15.16;99.60
38939;BME280;24211;49.980;19.776;2023-03-20T10:11:32;99357.50;;;15.19;100.00
38939;BME280;24211;49.980;19.776;2023-03-20T10:14:35;99363.78;;;15.51;99.80
38939;BME280;24211;49.980;19.776;2023-03-20T10:17:35;99353.06;;;15.56;99.67
38939;BME280;24211;49.980;19.776;2023-03-20T10:20:27;99345.69;;;15.79;98.67
38939;BME280;24211;49.980;19.776;2023-03-20T10:23:26;99357.19;;;16.01;95.88
38939;BME280;24211;49.980;19.776;2023-03-20T10:26:06;99356.41;;;16.05;96.33
38939;BME280;24211;49.980;19.776;2023-03-20T10:28:51;99348.03;;;16.02;97.12
38939;BME280;24211;49.980;19.776;2023-03-20T10:32:20;99356.25;;;16.22;96.75
38939;BME280;24211;49.980;19.776;2023-03-20T10:35:00;99339.34;;;16.36;98.45
38939;BME280;24211;49.980;19.776;2023-03-20T10:40:36;99354.69;;;16.31;100.00
38939;BME280;24211;49.980;19.776;2023-03-20T10:43:19;99341.00;;;16.43;100.00
38939;BME280;24211;49.980;19.776;2023-03-20T10:45:52;99348.03;;;16.44;100.00
38939;BME280;24211;49.980;19.776;2023-03-20T10:48:42;99340.50;;;16.46;100.00
38939;BME280;24211;49.980;19.776;2023-03-20T10:51:17;99343.44;;;16.44;100.00
38939;BME280;24211;49.980;19.776;2023-03-20T10:53:53;99342.91;;;16.47;99.96
38939;BME280;24211;49.980;19.776;2023-03-20T10:56:39;99337.50;;;16.47;98.65
38939;BME280;24211;49.980;19.776;2023-03-20T10:59:24;99333.22;;;16.51;96.68
38939;BME280;24211;49.980;19.776;2023-03-20T11:01:52;99333.22;;;16.51;97.17
38939;BME280;24211;49.980;19.776;2023-03-20T11:04:20;99324.66;;;16.59;97.10
38939;BME280;24211;49.980;19.776;2023-03-20T11:07:02;99334.44;;;16.75;94.92
38939;BME280;24211;49.980;19.776;2023-03-20T11:09:32;99334.69;;;16.69;95.00
38939;BME280;24211;49.980;19.776;2023-03-20T11:12:01;99329.44;;;16.47;98.14
38939;BME280;24211;49.980;19.776;2023-03-20T11:14:36;99326.63;;;16.27;100.00
38939;BME280;24211;49.980;19.776;2023-03-20T11:17:06;99329.22;;;16.12;100.00
38939;BME280;24211;49.980;19.776;2023-03-20T11:19:36;99335.94;;;16.04;100.00
38939;BME280;24211;49.980;19.776;2023-03-20T11:22:25;99325.31;;;15.93;100.00
38939;BME280;24211;49.980;19.776;2023-03-20T11:24:59;99325.78;;;15.80;100.00
38939;BME280;24211;49.980;19.776;2023-03-20T11:27:33;99322.44;;;15.67;100.00
38939;BME280;24211;49.980;19.776;2023-03-20T11:30:10;99319.72;;;15.62;100.00
38939;BME280;24211;49.980;19.776;2023-03-20T11:32:49;99311.88;;;15.61;100.00
38939;BME280;24211;49.980;19.776;2023-03-20T11:38:11;99322.13;;;15.64;100.00
38939;BME280;24211;49.980;19.776;2023-03-20T11:40:40;99322.88;;;15.54;100.00
38939;BME280;24211;49.980;19.776;2023-03-20T11:43:16;99314.84;;;15.59;100.00
38939;BME280;24211;49.980;19.776;2023-03-20T11:45:50;99315.88;;;15.58;100.00
38939;BME280;24211;49.980;19.776;2023-03-20T11:48:24;99315.94;;;15.63;100.00
38939;BME280;24211;49.980;19.776;2023-03-20T11:51:04;99316.84;;;15.74;100.00
38939;BME280;24211;49.980;19.776;2023-03-20T11:56:28;99315.03;;;15.85;100.00
38939;BME280;24211;49.980;19.776;2023-03-20T12:01:46;99303.56;;;15.99;100.00
38939;BME280;24211;49.980;19.776;2023-03-20T12:04:30;99306.00;;;16.06;100.00
38939;BME280;24211;49.980;19.776;2023-03-20T12:07:13;99306.28;;;16.04;100.00
38939;BME280;24211;49.980;19.776;2023-03-20T12:12:35;99301.84;;;16.35;100.00
38939;BME280;24211;49.980;19.776;2023-03-20T12:15:31;99296.53;;;16.50;100.00
38939;BME280;24211;49.980;19.776;2023-03-20T12:18:10;99296.34;;;16.62;100.00
38939;BME280;24211;49.980;19.776;2023-03-20T12:21:14;99296.66;;;16.75;100.00
38939;BME280;24211;49.980;19.776;2023-03-20T12:23:55;99290.72;;;16.78;100.00
38939;BME280;24211;49.980;19.776;2023-03-20T12:29:50;99285.88;;;16.75;100.00
38939;BME280;24211;49.980;19.776;2023-03-20T12:32:43;99288.00;;;16.73;100.00
38939;BME280;24211;49.980;19.776;2023-03-20T12:35:26;99288.00;;;16.73;100.00
38939;BME280;24211;49.980;19.776;2023-03-20T12:37:54;99286.41;;;16.72;100.00
38939;BME280;24211;49.980;19.776;2023-03-20T12:40:32;99295.00;;;16.69;100.00
38939;BME280;24211;49.980;19.776;2023-03-20T12:43:25;99287.44;;;16.66;100.00
38939;BME280;24211;49.980;19.776;2023-03-20T12:46:40;99283.44;;;16.74;100.00
38939;BME280;24211;49.980;19.776;2023-03-20T12:52:19;99276.94;;;16.70;100.00
38939;BME280;24211;49.980;19.776;2023-03-20T13:06:54;99276.66;;;16.66;100.00
38939;BME280;24211;49.980;19.776;2023-03-20T13:13:14;99268.53;;;16.61;100.00
38939;BME280;24211;49.980;19.776;2023-03-20T13:16:09;99264.50;;;16.69;100.00
38939;BME280;24211;49.980;19.776;2023-03-20T13:19:03;99268.03;;;16.69;100.00
38939;BME280;24211;49.980;19.776;2023-03-20T13:21:48;99263.44;;;16.65;100.00
38939;BME280;24211;49.980;19.776;2023-03-20T13:25:07;99257.75;;;16.66;100.00
38939;BME280;24211;49.980;19.776;2023-03-20T13:27:48;99260.47;;;16.71;100.00
38939;BME280;24211;49.980;19.776;2023-03-20T13:31:22;99249.16;;;16.69;100.00
38939;BME280;24211;49.980;19.776;2023-03-20T13:37:16;99248.94;;;16.96;100.00
38939;BME280;24211;49.980;19.776;2023-03-20T13:45:39;99233.53;;;17.97;100.00
38939;BME280;24211;49.980;19.776;2023-03-20T13:51:16;99241.16;;;18.64;99.99
38939;BME280;24211;49.980;19.776;2023-03-20T13:56:47;99235.28;;;18.96;92.15
38939;BME280;24211;49.980;19.776;2023-03-20T13:59:58;99230.88;;;19.05;93.65
38939;BME280;24211;49.980;19.776;2023-03-20T14:02:44;99228.91;;;19.49;85.00
38939;BME280;24211;49.980;19.776;2023-03-20T14:05:20;99233.31;;;19.45;86.16
38939;BME280;24211;49.980;19.776;2023-03-20T14:07:54;99221.13;;;19.72;81.20
38939;BME280;24211;49.980;19.776;2023-03-20T14:13:00;99235.28;;;19.64;79.86
38939;BME280;24211;49.980;19.776;2023-03-20T14:15:36;99228.47;;;19.37;79.58
38939;BME280;24211;49.980;19.776;2023-03-20T14:18:15;99232.38;;;19.21;81.77
38939;BME280;24211;49.980;19.776;2023-03-20T14:21:01;99228.66;;;19.12;80.95
38939;BME280;24211;49.980;19.776;2023-03-20T14:23:38;99234.53;;;18.80;84.90
38939;BME280;24211;49.980;19.776;2023-03-20T14:26:21;99226.81;;;18.59;89.49
38939;BME280;24211;49.980;19.776;2023-03-20T14:29:19;99235.81;;;18.39;93.59
38939;BME280;24211;49.980;19.776;2023-03-20T14:31:50;99229.63;;;18.28;94.81
38939;BME280;24211;49.980;19.776;2023-03-20T14:34:22;99234.00;;;18.19;95.93
38939;BME280;24211;49.980;19.776;2023-03-20T14:37:25;99231.34;;;18.04;97.64
38939;BME280;24211;49.980;19.776;2023-03-20T14:40:19;99236.25;;;17.92;99.19
38939;BME280;24211;49.980;19.776;2023-03-20T14:43:07;99231.97;;;17.71;100.00
38939;BME280;24211;49.980;19.776;2023-03-20T14:46:04;99232.19;;;17.49;100.00
38939;BME280;24211;49.980;19.776;2023-03-20T14:48:41;99234.94;;;17.34;100.00
38939;BME280;24211;49.980;19.776;2023-03-20T14:51:36;99229.25;;;17.21;100.00
38939;BME280;24211;49.980;19.776;2023-03-20T14:58:47;99227.63;;;16.99;100.00
38939;BME280;24211;49.980;19.776;2023-03-20T15:03:55;99232.44;;;16.82;100.00
38939;BME280;24211;49.980;19.776;2023-03-20T15:06:27;99228.63;;;16.73;100.00
38939;BME280;24211;49.980;19.776;2023-03-20T15:09:06;99226.50;;;16.70;100.00